createdAt,value
2022-12-11T00:00:12.249Z,97.24
2022-12-11T00:03:36.498Z,96.51
2022-12-11T00:06:39.114Z,97.43
2022-12-11T00:09:42.070Z,98.12
2022-12-11T00:12:44.558Z,97.49
2022-12-11T00:15:47.319Z,97.04
2022-12-11T00:18:49.950Z,97.47
2022-12-11T00:21:52.771Z,97.76
2022-12-11T00:24:55.224Z,97.40
2022-12-11T00:27:57.863Z,97.83
2022-12-11T00:31:00.442Z,98.39
2022-12-11T00:34:03.245Z,98.65
2022-12-11T00:37:05.834Z,99.46
2022-12-11T00:40:09.184Z,100.00
2022-12-11T00:43:12.054Z,100.00
2022-12-11T00:46:15.408Z,100.00
2022-12-11T00:49:17.869Z,100.00
2022-12-11T00:52:20.739Z,100.00
2022-12-11T00:55:23.633Z,100.00
2022-12-11T00:58:26.787Z,100.00
2022-12-11T01:01:29.553Z,99.83
2022-12-11T01:04:32.664Z,99.86
2022-12-11T01:07:35.149Z,100.00
2022-12-11T01:10:37.873Z,100.00
2022-12-11T01:13:41.036Z,100.00
2022-12-11T01:16:43.951Z,100.00
2022-12-11T01:19:46.579Z,100.00
2022-12-11T01:22:53.761Z,100.00
2022-12-11T01:25:56.266Z,100.00
2022-12-11T01:28:59.155Z,100.00
2022-12-11T01:32:01.588Z,100.00
2022-12-11T01:35:06.141Z,99.26
2022-12-11T01:38:09.246Z,99.25
2022-12-11T01:41:12.199Z,99.42
2022-12-11T01:44:14.972Z,99.09
2022-12-11T01:47:17.859Z,98.95
2022-12-11T01:50:20.575Z,98.53
2022-12-11T01:53:28.009Z,98.54
2022-12-11T01:56:31.965Z,98.84
2022-12-11T01:59:37.466Z,99.21
2022-12-11T02:02:40.668Z,99.53
2022-12-11T02:05:43.601Z,100.00
2022-12-11T02:08:45.956Z,100.00
2022-12-11T02:12:22.749Z,100.00
2022-12-11T02:15:34.971Z,100.00
2022-12-11T02:19:08.348Z,100.00
2022-12-11T02:22:16.853Z,100.00
2022-12-11T02:25:27.667Z,100.00
2022-12-11T02:28:56.394Z,100.00
2022-12-11T02:32:05.764Z,100.00
2022-12-11T02:35:17.864Z,100.00
2022-12-11T02:38:29.124Z,99.64
2022-12-11T02:41:34.076Z,99.95
2022-12-11T02:44:38.328Z,99.68
2022-12-11T02:47:42.086Z,100.00
2022-12-11T02:50:47.938Z,100.00
2022-12-11T02:53:52.785Z,100.00
2022-12-11T02:57:17.016Z,100.00
2022-12-11T03:00:19.927Z,100.00
2022-12-11T03:03:23.448Z,100.00
2022-12-11T03:06:32.528Z,100.00
2022-12-11T03:09:35.261Z,100.00
2022-12-11T03:12:39.665Z,100.00
2022-12-11T03:15:56.947Z,100.00
2022-12-11T03:19:13.558Z,100.00
2022-12-11T03:22:39.637Z,100.00
2022-12-11T03:25:51.100Z,100.00
2022-12-11T03:29:01.105Z,100.00
2022-12-11T03:32:24.933Z,100.00
2022-12-11T03:35:39.823Z,100.00
2022-12-11T03:38:49.531Z,100.00
2022-12-11T03:41:53.978Z,100.00
2022-12-11T03:44:58.323Z,100.00
2022-12-11T03:48:02.987Z,100.00
2022-12-11T03:51:07.029Z,100.00
2022-12-11T03:54:11.347Z,100.00
2022-12-11T03:57:18.595Z,100.00
2022-12-11T04:00:22.056Z,100.00
2022-12-11T04:03:24.730Z,100.00
2022-12-11T04:06:27.674Z,100.00
2022-12-11T04:09:30.111Z,100.00
2022-12-11T04:12:32.880Z,100.00
2022-12-11T04:15:35.710Z,100.00
2022-12-11T04:18:57.032Z,100.00
2022-12-11T04:22:17.923Z,100.00
2022-12-11T04:25:20.744Z,100.00
2022-12-11T04:28:23.275Z,100.00
2022-12-11T04:31:25.937Z,100.00
2022-12-11T04:34:28.394Z,100.00
2022-12-11T04:37:31.106Z,100.00
2022-12-11T04:40:33.506Z,100.00
2022-12-11T04:43:36.757Z,100.00
2022-12-11T04:46:39.474Z,100.00
2022-12-11T04:49:42.497Z,100.00
2022-12-11T04:52:45.169Z,100.00
2022-12-11T04:55:47.936Z,100.00
2022-12-11T04:58:50.489Z,100.00
2022-12-11T05:01:53.352Z,100.00
2022-12-11T05:04:58.028Z,100.00
2022-12-11T05:08:04.930Z,100.00
2022-12-11T05:11:10.382Z,100.00
2022-12-11T05:14:13.363Z,100.00
2022-12-11T05:21:05.968Z,100.00
2022-12-11T05:24:08.920Z,100.00
2022-12-11T05:27:12.169Z,100.00
2022-12-11T05:30:14.608Z,100.00
2022-12-11T05:33:17.449Z,100.00
2022-12-11T05:36:25.265Z,100.00
2022-12-11T05:39:28.215Z,100.00
2022-12-11T05:42:30.656Z,100.00
2022-12-11T05:45:33.794Z,100.00
2022-12-11T05:48:37.365Z,100.00
2022-12-11T05:51:41.479Z,100.00
2022-12-11T05:54:44.057Z,100.00
2022-12-11T05:57:46.808Z,100.00
2022-12-11T06:00:49.335Z,100.00
2022-12-11T06:03:52.377Z,100.00
2022-12-11T06:06:55.722Z,100.00
2022-12-11T06:09:58.453Z,100.00
2022-12-11T06:13:01.082Z,100.00
2022-12-11T06:16:05.694Z,100.00
2022-12-11T06:19:14.508Z,100.00
2022-12-11T06:22:17.356Z,100.00
2022-12-11T06:25:21.423Z,100.00
2022-12-11T06:28:37.062Z,100.00
2022-12-11T06:31:39.728Z,100.00
2022-12-11T06:34:42.638Z,100.00
2022-12-11T06:37:49.210Z,100.00
2022-12-11T06:40:59.545Z,100.00
2022-12-11T06:44:02.039Z,100.00
2022-12-11T06:47:05.718Z,100.00
2022-12-11T06:50:08.635Z,100.00
2022-12-11T06:53:12.847Z,100.00
2022-12-11T06:56:16.009Z,100.00
2022-12-11T06:59:19.320Z,100.00
2022-12-11T07:02:21.966Z,100.00
2022-12-11T07:05:24.894Z,100.00
2022-12-11T07:08:29.182Z,100.00
2022-12-11T07:11:32.120Z,100.00
2022-12-11T07:14:34.926Z,100.00
2022-12-11T07:17:37.776Z,100.00
2022-12-11T07:20:40.469Z,100.00
2022-12-11T07:23:43.778Z,100.00
2022-12-11T07:26:56.351Z,100.00
2022-12-11T07:30:12.876Z,100.00
2022-12-11T07:33:29.941Z,100.00
2022-12-11T07:36:33.910Z,100.00
2022-12-11T07:39:36.802Z,100.00
2022-12-11T07:42:44.539Z,100.00
2022-12-11T07:45:50.493Z,99.21
2022-12-11T07:48:58.028Z,99.44
2022-12-11T07:52:00.628Z,100.00
2022-12-11T07:55:04.278Z,99.59
2022-12-11T07:58:06.878Z,99.88
2022-12-11T08:01:20.558Z,99.53
2022-12-11T08:04:23.149Z,100.00
2022-12-11T08:07:27.161Z,100.00
2022-12-11T08:14:11.508Z,100.00
2022-12-11T08:17:14.206Z,100.00
2022-12-11T08:20:17.108Z,100.00
2022-12-11T08:23:19.629Z,99.83
2022-12-11T08:26:27.845Z,100.00
2022-12-11T08:29:30.406Z,100.00
2022-12-11T08:32:33.155Z,100.00
2022-12-11T08:35:40.079Z,100.00
2022-12-11T08:38:43.280Z,100.00
2022-12-11T08:41:45.905Z,100.00
2022-12-11T08:44:48.824Z,100.00
2022-12-11T08:47:51.509Z,100.00
2022-12-11T08:50:54.536Z,100.00
2022-12-11T08:53:59.150Z,99.99
2022-12-11T08:57:02.083Z,100.00
2022-12-11T09:00:05.194Z,100.00
2022-12-11T09:03:12.593Z,99.10
2022-12-11T09:06:18.271Z,100.00
2022-12-11T09:09:21.192Z,99.88
2022-12-11T09:12:23.953Z,99.75
2022-12-11T09:15:26.885Z,99.70
2022-12-11T09:18:29.508Z,99.88
2022-12-11T09:21:32.620Z,98.47
2022-12-11T09:24:35.175Z,98.28
2022-12-11T09:27:38.439Z,97.66
2022-12-11T09:30:41.326Z,98.51
2022-12-11T09:33:44.801Z,97.63
2022-12-11T09:36:47.707Z,98.31
2022-12-11T09:39:50.550Z,98.29
2022-12-11T09:43:26.247Z,98.19
2022-12-11T09:46:33.916Z,98.53
2022-12-11T09:49:42.864Z,98.40
2022-12-11T09:52:58.449Z,98.20
2022-12-11T09:56:23.244Z,99.38
2022-12-11T09:59:35.369Z,98.29
2022-12-11T10:14:16.103Z,97.64
2022-12-11T10:17:31.096Z,98.03
2022-12-11T10:20:43.581Z,96.88
2022-12-11T10:23:58.586Z,97.78
2022-12-11T10:27:21.650Z,97.46
2022-12-11T10:30:34.688Z,96.74
2022-12-11T10:33:45.871Z,96.90
2022-12-11T10:37:15.927Z,96.89
2022-12-11T10:40:22.981Z,97.27
2022-12-11T10:43:52.985Z,96.91
2022-12-11T10:47:14.627Z,96.78
2022-12-11T10:50:30.894Z,97.00
2022-12-11T10:53:37.331Z,97.42
2022-12-11T10:56:41.244Z,97.05
2022-12-11T10:59:45.913Z,97.69
2022-12-11T11:02:49.586Z,97.43
2022-12-11T11:06:17.733Z,97.12
2022-12-11T11:10:35.380Z,97.42
2022-12-11T11:13:39.266Z,97.42
2022-12-11T11:17:14.890Z,97.88
2022-12-11T11:20:24.439Z,96.32
2022-12-11T11:32:39.019Z,95.41
2022-12-11T12:34:31.900Z,95.99
2022-12-11T12:38:30.904Z,96.26
2022-12-11T12:42:07.888Z,96.25
2022-12-11T12:45:48.253Z,96.37
2022-12-11T12:48:52.060Z,95.36
2022-12-11T12:55:41.305Z,95.77
2022-12-11T13:17:44.519Z,97.08
2022-12-11T13:20:54.147Z,96.90
2022-12-11T13:24:18.183Z,96.81
2022-12-11T13:27:46.327Z,97.22
2022-12-11T13:31:27.157Z,97.35
2022-12-11T13:34:35.299Z,97.33
2022-12-11T13:37:52.089Z,97.59
2022-12-11T13:40:59.352Z,97.47
2022-12-11T13:44:03.378Z,97.34
2022-12-11T13:47:13.614Z,97.12
2022-12-11T13:50:25.456Z,97.43
2022-12-11T13:53:29.779Z,96.54
2022-12-11T13:56:33.553Z,96.33
2022-12-11T13:59:38.492Z,96.43
2022-12-11T14:02:42.930Z,96.47
2022-12-11T14:05:46.443Z,96.94
2022-12-11T14:08:52.302Z,96.18
2022-12-11T14:11:57.672Z,96.15
2022-12-11T14:15:02.328Z,96.26
2022-12-11T14:18:05.958Z,96.78
2022-12-11T14:21:25.743Z,96.87
2022-12-11T14:24:30.219Z,97.13
2022-12-11T14:27:35.078Z,96.55
2022-12-11T14:30:39.893Z,95.91
2022-12-11T14:33:53.816Z,96.04
2022-12-11T14:40:28.413Z,96.76
2022-12-11T14:44:01.197Z,96.32
2022-12-11T14:47:13.122Z,96.51
2022-12-11T14:50:20.671Z,96.23
2022-12-11T14:53:57.145Z,96.60
2022-12-11T14:57:09.070Z,96.91
2022-12-11T15:00:29.813Z,96.34
2022-12-11T15:11:13.057Z,96.97
2022-12-11T15:14:20.142Z,96.87
2022-12-11T15:17:26.711Z,96.73
2022-12-11T15:20:31.991Z,97.17
2022-12-11T15:23:54.722Z,96.95
2022-12-11T15:27:00.076Z,97.32
2022-12-11T15:30:18.702Z,97.33
2022-12-11T15:33:22.690Z,96.91
2022-12-11T15:36:34.481Z,96.78
2022-12-11T15:39:39.120Z,96.72
2022-12-11T15:42:43.295Z,95.69
2022-12-11T15:45:46.337Z,95.86
2022-12-11T15:48:50.811Z,96.46
2022-12-11T15:51:54.933Z,95.79
2022-12-11T15:54:58.181Z,95.32
2022-12-11T15:58:06.589Z,95.38
2022-12-11T16:01:10.381Z,96.53
2022-12-11T16:04:14.399Z,96.75
2022-12-11T16:07:19.982Z,96.60
2022-12-11T16:10:23.525Z,97.35
2022-12-11T16:13:27.731Z,96.71
2022-12-11T16:16:31.294Z,96.57
2022-12-11T16:19:35.197Z,96.60
2022-12-11T16:22:38.110Z,97.32
2022-12-11T16:25:42.864Z,97.10
2022-12-11T16:28:45.956Z,97.20
2022-12-11T16:31:49.087Z,96.67
2022-12-11T16:34:52.100Z,97.04
2022-12-11T16:37:56.483Z,97.13
2022-12-11T16:41:02.704Z,96.87
2022-12-11T16:44:07.004Z,96.87
2022-12-11T16:47:10.135Z,96.50
2022-12-11T16:50:15.638Z,95.94
2022-12-11T16:53:18.866Z,96.13
2022-12-11T16:56:22.171Z,96.22
2022-12-11T16:59:25.865Z,95.48
2022-12-11T17:02:32.102Z,94.81
2022-12-11T17:05:35.541Z,95.44
2022-12-11T17:08:40.280Z,95.83
2022-12-11T17:11:45.899Z,96.21
2022-12-11T17:14:49.586Z,95.88
2022-12-11T17:17:52.910Z,95.37
2022-12-11T17:20:56.047Z,96.28
2022-12-11T17:23:59.061Z,96.67
2022-12-11T17:27:03.397Z,96.80
2022-12-11T17:30:07.118Z,96.43
2022-12-11T17:33:14.182Z,97.38
2022-12-11T17:36:22.285Z,97.70
2022-12-11T17:39:27.327Z,97.35
2022-12-11T17:42:30.359Z,97.13
2022-12-11T17:45:43.041Z,97.24
2022-12-11T17:48:50.906Z,96.81
2022-12-11T17:51:56.704Z,96.76
2022-12-11T17:55:45.780Z,97.04
2022-12-11T17:58:50.123Z,97.58
2022-12-11T18:01:55.390Z,97.97
2022-12-11T18:04:59.400Z,97.95
2022-12-11T18:08:03.837Z,98.54
2022-12-11T18:11:16.637Z,98.27
2022-12-11T18:14:19.750Z,98.76
2022-12-11T18:17:23.380Z,99.08
2022-12-11T18:20:27.394Z,98.33
2022-12-11T18:23:32.204Z,98.85
2022-12-11T18:26:36.315Z,98.66
2022-12-11T18:29:40.959Z,98.42
2022-12-11T18:32:46.144Z,98.15
2022-12-11T18:35:54.962Z,98.39
2022-12-11T18:39:08.006Z,98.27
2022-12-11T18:45:45.671Z,97.77
2022-12-11T18:48:51.319Z,97.52
2022-12-11T18:51:56.204Z,97.48
2022-12-11T18:55:01.883Z,97.99
2022-12-11T18:58:06.841Z,97.39
2022-12-11T19:01:15.420Z,97.94
2022-12-11T19:04:20.645Z,98.40
2022-12-11T19:07:24.688Z,98.27
2022-12-11T19:10:29.739Z,98.41
2022-12-11T19:13:35.844Z,98.41
2022-12-11T19:16:42.513Z,98.78
2022-12-11T19:19:48.474Z,98.50
2022-12-11T19:22:52.417Z,97.62
2022-12-11T19:25:57.565Z,97.45
2022-12-11T19:29:03.374Z,97.48
2022-12-11T19:32:07.751Z,98.28
2022-12-11T19:35:15.645Z,98.29
2022-12-11T19:38:21.028Z,97.53
2022-12-11T19:41:28.164Z,98.04
2022-12-11T19:44:32.918Z,97.84
2022-12-11T19:47:37.330Z,96.96
2022-12-11T19:50:41.959Z,97.80
2022-12-11T19:53:48.095Z,98.23
2022-12-11T19:56:54.455Z,98.55
2022-12-11T19:59:58.596Z,99.10
2022-12-11T20:03:08.185Z,99.06
2022-12-11T20:06:13.066Z,99.08
2022-12-11T20:09:24.971Z,99.13
2022-12-11T20:12:30.044Z,98.79
2022-12-11T20:15:34.547Z,99.31
2022-12-11T20:18:39.211Z,99.30
2022-12-11T20:21:43.611Z,99.60
2022-12-11T20:25:47.440Z,100.00
2022-12-11T20:29:52.048Z,100.00
2022-12-11T20:32:17.485Z,99.70
2022-12-11T20:35:21.577Z,99.40
2022-12-11T20:38:27.752Z,99.27
2022-12-11T20:41:39.345Z,99.08
2022-12-11T20:44:48.994Z,99.64
2022-12-11T20:48:11.475Z,99.90
2022-12-11T20:51:51.270Z,99.21
2022-12-11T20:55:43.592Z,98.82
2022-12-11T20:59:39.424Z,98.19
2022-12-11T21:03:01.514Z,98.95
2022-12-11T21:06:05.260Z,98.77
2022-12-11T21:09:14.208Z,98.65
2022-12-11T21:12:17.793Z,99.16
2022-12-11T21:15:26.782Z,98.82
2022-12-11T21:18:44.804Z,99.04
2022-12-11T21:21:51.543Z,99.13
2022-12-11T21:24:58.173Z,98.48
2022-12-11T21:28:05.660Z,98.42
2022-12-11T21:31:12.994Z,98.49
2022-12-11T21:34:20.650Z,98.29
2022-12-11T21:37:26.690Z,98.37
2022-12-11T21:40:30.600Z,98.82
2022-12-11T21:43:33.995Z,98.81
2022-12-11T21:46:37.041Z,98.93
2022-12-11T21:49:39.704Z,98.26
2022-12-11T21:52:42.749Z,98.06
2022-12-11T21:55:45.183Z,97.79
2022-12-11T21:58:49.007Z,99.02
2022-12-11T22:01:51.740Z,98.86
2022-12-11T22:04:54.867Z,99.07
2022-12-11T22:07:57.899Z,99.38
2022-12-11T22:11:01.338Z,99.20
2022-12-11T22:14:04.538Z,99.13
2022-12-11T22:17:07.574Z,99.48
2022-12-11T22:20:11.422Z,99.39
2022-12-11T22:23:14.475Z,99.01
2022-12-11T22:26:20.810Z,98.78
2022-12-11T22:29:30.750Z,99.00
2022-12-11T22:32:33.343Z,98.37
2022-12-11T22:35:36.620Z,97.88
2022-12-11T22:38:39.923Z,97.66
2022-12-11T22:41:43.433Z,97.49
2022-12-11T22:44:46.028Z,97.10
2022-12-11T22:47:49.138Z,97.02
2022-12-11T22:51:17.582Z,96.74
2022-12-11T22:54:20.680Z,97.06
2022-12-11T22:57:23.460Z,96.67
2022-12-11T23:00:26.700Z,97.04
2022-12-11T23:03:29.364Z,96.95
2022-12-11T23:06:42.258Z,96.56
2022-12-11T23:09:44.979Z,96.71
2022-12-11T23:12:47.975Z,96.87
2022-12-11T23:15:50.503Z,98.17
2022-12-11T23:18:54.851Z,97.75
2022-12-11T23:21:58.296Z,97.52
2022-12-11T23:25:01.404Z,97.66
2022-12-11T23:28:04.229Z,97.45
2022-12-11T23:31:07.776Z,97.44
2022-12-11T23:34:10.512Z,97.68
2022-12-11T23:37:13.540Z,98.19
2022-12-11T23:40:38.503Z,98.76
2022-12-11T23:43:42.362Z,98.45
2022-12-11T23:46:45.345Z,98.17
2022-12-11T23:49:48.335Z,98.46
2022-12-11T23:52:50.935Z,97.52
2022-12-11T23:55:54.084Z,97.74
2022-12-11T23:58:57.620Z,97.57
